KJRB/JRB METAR and TAF weather

Enter ICAO airport designator
Station Type Date Time Source
KJRB METAR 2018/12/12 06:56 UTC NOAA

KJRB 120656Z AUTO VRB05KT 10SM OVC070 02/M04 A3000 RMK AO2 SLP157 T00171044 FZRANO


Station Type Date Time Source
KJRB Decoded METAR 2018/12/12 06:56 UTC NOAA

Station name not available
Dec 12, 2018 - 01:56 AM EST / 2018.12.12 0656 UTC
Wind: Variable at 6 MPH (5 KT):0
Visibility: 10 mile(s):0
Sky conditions: overcast
Temperature: 35.1 F (1.7 C)
Dew Point: 24.1 F (-4.4 C)
Relative Humidity: 63%
Pressure (altimeter): 30 in. Hg (1015 hPa)
ob: KJRB 120656Z AUTO VRB05KT 10SM OVC070 02/M04 A3000 RMK AO2 SLP157 T00171044 FZRANO
cycle: 7

Station Type Date Time Source
KJRB TAF UTC NOAA

Error!


Example: see airport list